CheckWX is a tool to help pilots better visualize weather data.  It is not intended as a substitute for an official pre-flight weather briefing.

19:59:39 UTC

FNGI TAF
Ngjiva Pereira Airport
Ngiva, Angola
TAF FNGI 201045Z 2012/2024 05012KT CAVOK BECMG 2020/2023 8000 NSC

Jun-20@
12:00 UTC

Jun-20 @ 12:00 UTC

Jun-20@
20:00 UTC

Jun-20 @ 20:00 UTC

TAF FNGI 201045Z 2012/2024 05012KT CAVOK
Wind
  • 050° at 12 KTS
Conditions
No significant weather
Cloud Levels
  • No significant clouds

Jun-20@
20:00 UTC

Jun-20 @ 20:00 UTC

Jun-21@
00:00 UTC

Jun-21 @ 00:00 UTC

BECMG 2020/2023 8000 NSC

Becoming

Becoming Conditions expected by Thu, Jun 20, 2019 @ 23:00 UTC

Wind
  • 050° at 12 KTS
Conditions
No significant weather
Cloud Levels
  • No significant clouds